ESSV/VBY METAR and TAF weather

Enter ICAO airport designator
Station Type Date Time Source
ESSV METAR 2018/01/24 07:20 UTC NOAA

ESSV 240720Z 22021KT 9999 OVC007 04/03 Q1003 R21/71//80


Station Type Date Time Source
ESSV Decoded METAR 2018/01/24 07:20 UTC NOAA

Visby Flygplats, Sweden (ESSV) 57-40N 018-21E 47M
Jan 24, 2018 - 02:20 AM EST / 2018.01.24 0720 UTC
Wind: from the SW (220 degrees) at 24 MPH (21 KT):0
Visibility: greater than 7 mile(s):0
Sky conditions: overcast
Temperature: 39 F (4 C)
Dew Point: 37 F (3 C)
Relative Humidity: 93%
Pressure (altimeter): 29.62 in. Hg (1003 hPa)
ob: ESSV 240720Z 22021KT 9999 OVC007 04/03 Q1003 R21/71//80
cycle: 7

Station Type Date Time Source
ESSV TAF 2017/09/20 09:39 UTC NOAA

TAF COR TAF COR ESSV 200840Z 2009/2021 10005KT 9999 BKN030 PROB40 2009/2016 4000 TS SHRA BKN015CB


Example: see airport list